Time;durP1;ratioP1;P1;durP2;ratioP2;P2;SDS_P1;SDS_P2;PMS_P1;PMS_P2;Temp;Humidity;BMP_temperature;BMP_pressure;BME280_temperature;BME280_humidity;BME280_pressure;Samples;Min_cycle;Max_cycle;Signal;HPM_P1;HPM_P2
2023/04/09 00:01:46;;;;;;;42.17;24.40;;;9.70;99.90;;;;;;4949957;28;20073;-88
2023/04/09 00:04:12;;;;;;;38.92;23.50;;;9.70;99.90;;;;;;4965857;28;20039;-88
2023/04/09 00:06:37;;;;;;;38.63;22.70;;;9.70;99.90;;;;;;4968815;28;20623;-88
2023/04/09 00:09:03;;;;;;;41.83;22.65;;;9.70;99.90;;;;;;4993011;28;20031;-88
2023/04/09 00:11:29;;;;;;;39.38;21.65;;;9.70;99.90;;;;;;4949244;28;20057;-88
2023/04/09 00:13:56;;;;;;;42.95;23.58;;;9.70;99.90;;;;;;4965850;28;20042;-87
2023/04/09 00:16:21;;;;;;;39.65;22.25;;;9.70;99.90;;;;;;4998526;28;20038;-87
2023/04/09 00:18:47;;;;;;;37.90;21.63;;;9.70;99.90;;;;;;4950885;28;20045;-88
2023/04/09 00:21:15;;;;;;;39.30;22.15;;;9.60;99.90;;;;;;4952940;28;20081;-88
2023/04/09 00:23:41;;;;;;;38.30;23.38;;;9.60;99.90;;;;;;4985936;28;20045;-88
2023/04/09 00:26:06;;;;;;;38.40;23.15;;;9.60;99.90;;;;;;4966336;28;20035;-87
2023/04/09 00:28:32;;;;;;;43.58;24.58;;;9.60;99.90;;;;;;4951279;28;20187;-88
2023/04/09 00:30:58;;;;;;;38.60;23.00;;;9.70;99.90;;;;;;4945510;28;20038;-88
2023/04/09 00:33:24;;;;;;;39.28;23.67;;;9.60;99.90;;;;;;4997058;28;20121;-88
2023/04/09 00:35:50;;;;;;;39.75;23.20;;;9.60;99.90;;;;;;4944663;28;20043;-88
2023/04/09 00:38:15;;;;;;;38.70;21.83;;;9.60;99.90;;;;;;4958833;28;20053;-88
2023/04/09 00:40:41;;;;;;;37.53;22.55;;;9.60;99.90;;;;;;4970653;28;20393;-88
2023/04/09 00:43:07;;;;;;;40.05;23.98;;;9.60;99.90;;;;;;4965490;28;20069;-88
2023/04/09 00:45:32;;;;;;;37.50;21.98;;;9.60;99.90;;;;;;4949403;28;20078;-88
2023/04/09 00:47:58;;;;;;;37.22;22.55;;;9.60;99.90;;;;;;4973433;28;20264;-88
2023/04/09 00:50:24;;;;;;;34.72;20.48;;;9.60;99.90;;;;;;5002859;28;20050;-88
2023/04/09 00:52:50;;;;;;;39.13;23.08;;;9.50;99.90;;;;;;4966949;28;20230;-88
2023/04/09 00:55:17;;;;;;;37.75;21.20;;;9.50;99.90;;;;;;5000944;28;20097;-88
2023/04/09 00:57:43;;;;;;;36.80;21.67;;;9.50;99.90;;;;;;4960707;28;20038;-88
2023/04/09 01:00:10;;;;;;;35.58;21.10;;;9.50;99.90;;;;;;4958780;28;20566;-88
2023/04/09 01:02:36;;;;;;;42.33;21.67;;;9.60;99.90;;;;;;4998674;28;20586;-88
2023/04/09 01:05:02;;;;;;;39.88;22.33;;;9.60;99.90;;;;;;4972239;28;20495;-88
2023/04/09 01:07:59;;;;;;;35.55;21.65;;;9.50;99.90;;;;;;4953586;28;20039;-89
2023/04/09 01:10:34;;;;;;;38.38;22.05;;;9.50;99.90;;;;;;4956513;28;20039;-88
2023/04/09 01:13:07;;;;;;;38.72;21.60;;;9.50;99.90;;;;;;4984226;28;20035;-89
2023/04/09 01:15:35;;;;;;;;;;;9.50;99.90;;;;;;4983955;28;20057;-89
2023/04/09 01:18:18;;;;;;;35.10;20.75;;;9.50;99.90;;;;;;4997418;28;19926;-88
2023/04/09 01:20:55;;;;;;;39.85;22.13;;;9.50;99.90;;;;;;4998799;28;20393;-88
2023/04/09 01:24:05;;;;;;;38.53;22.50;;;9.50;99.90;;;;;;4954839;28;20085;-89
2023/04/09 01:26:53;;;;;;;38.38;22.33;;;9.50;99.90;;;;;;4965750;28;20061;-88
2023/04/09 01:29:20;;;;;;;37.60;22.65;;;9.50;99.90;;;;;;4952251;28;20082;-88
2023/04/09 01:31:48;;;;;;;41.80;24.23;;;9.50;99.90;;;;;;4949280;28;20570;-89
2023/04/09 01:34:15;;;;;;;38.42;22.95;;;9.40;99.90;;;;;;4986914;28;20046;-89
2023/04/09 01:36:43;;;;;;;37.78;21.88;;;9.40;99.90;;;;;;4967607;28;20042;-88
2023/04/09 01:39:09;;;;;;;38.97;22.60;;;9.40;99.90;;;;;;4957335;28;20034;-88
2023/04/09 01:41:36;;;;;;;38.35;24.00;;;9.30;99.90;;;;;;4949172;28;20116;-88
2023/04/09 01:44:04;;;;;;;40.38;23.00;;;9.30;99.90;;;;;;4974986;28;20416;-88
2023/04/09 01:46:32;;;;;;;37.40;22.27;;;9.30;99.90;;;;;;4956363;28;20393;-88
2023/04/09 01:48:58;;;;;;;42.05;23.45;;;9.30;99.90;;;;;;4953052;28;20038;-88
2023/04/09 01:51:26;;;;;;;37.95;23.05;;;9.30;99.90;;;;;;4967123;28;20464;-88
2023/04/09 01:53:51;;;;;;;39.42;23.48;;;9.30;99.90;;;;;;4953556;28;20038;-88
2023/04/09 01:56:17;;;;;;;42.00;24.38;;;9.30;99.90;;;;;;4953697;28;20038;-88
2023/04/09 01:58:43;;;;;;;37.08;23.30;;;9.40;99.90;;;;;;4979194;28;20034;-88
2023/04/09 02:01:13;;;;;;;36.28;22.15;;;9.40;99.90;;;;;;4945879;28;20074;-88
2023/04/09 02:03:55;;;;;;;39.42;23.63;;;9.40;99.90;;;;;;4979999;28;20042;-88
2023/04/09 02:06:41;;;;;;;39.37;21.53;;;9.40;99.90;;;;;;4955102;28;20529;-89
2023/04/09 02:09:08;;;;;;;40.05;22.52;;;9.40;99.90;;;;;;4943229;28;20039;-88
2023/04/09 02:11:39;;;;;;;42.67;21.45;;;9.30;99.90;;;;;;4986960;28;20034;-88
2023/04/09 02:14:07;;;;;;;39.63;22.77;;;9.30;99.90;;;;;;4992256;28;20100;-88
2023/04/09 02:16:33;;;;;;;38.80;22.63;;;9.30;99.90;;;;;;4964237;28;20037;-88
2023/04/09 02:19:00;;;;;;;35.40;21.48;;;9.30;99.90;;;;;;4999468;28;20041;-88
2023/04/09 02:21:27;;;;;;;39.15;23.15;;;9.40;99.90;;;;;;4990679;28;20047;-88
2023/04/09 02:23:54;;;;;;;39.20;20.88;;;9.40;99.90;;;;;;4981554;28;20049;-88
2023/04/09 02:26:20;;;;;;;38.03;21.13;;;9.30;99.90;;;;;;4964963;28;20038;-89
2023/04/09 02:28:46;;;;;;;35.97;20.45;;;9.30;99.90;;;;;;4954103;28;20408;-88
2023/04/09 02:31:12;;;;;;;42.10;21.77;;;9.30;99.90;;;;;;4982374;28;20045;-89
2023/04/09 02:33:37;;;;;;;35.47;20.88;;;9.30;99.90;;;;;;4968965;28;20095;-89
2023/04/09 02:36:04;;;;;;;34.53;21.08;;;9.30;99.90;;;;;;4979681;28;20034;-88
2023/04/09 02:38:30;;;;;;;35.95;20.35;;;9.30;99.90;;;;;;4966630;28;20061;-88
2023/04/09 02:40:56;;;;;;;34.83;21.42;;;9.30;99.90;;;;;;4958581;28;20125;-89
2023/04/09 02:43:22;;;;;;;34.17;19.17;;;9.30;99.90;;;;;;4950523;28;20039;-88
2023/04/09 02:45:47;;;;;;;36.92;20.73;;;9.30;99.90;;;;;;4960312;28;20038;-88
2023/04/09 02:48:13;;;;;;;33.83;20.67;;;9.30;99.90;;;;;;4978758;28;20049;-88
2023/04/09 02:50:39;;;;;;;36.13;19.85;;;9.20;99.90;;;;;;4954566;28;20034;-88
2023/04/09 02:53:05;;;;;;;35.30;20.48;;;9.20;99.90;;;;;;4989371;28;20101;-88
2023/04/09 02:55:30;;;;;;;37.05;20.67;;;9.20;99.90;;;;;;5025344;28;20618;-89
2023/04/09 02:57:56;;;;;;;37.40;22.25;;;9.20;99.90;;;;;;4979160;28;20045;-88
2023/04/09 03:00:22;;;;;;;39.17;22.80;;;9.20;99.90;;;;;;4964229;28;20041;-87
2023/04/09 03:02:47;;;;;;;35.60;19.08;;;9.20;99.90;;;;;;4981759;28;20411;-88
2023/04/09 03:05:13;;;;;;;35.70;20.10;;;9.20;99.90;;;;;;4982303;28;20085;-88
2023/04/09 03:07:39;;;;;;;37.97;21.83;;;9.20;99.90;;;;;;4960306;28;20062;-89
2023/04/09 03:10:04;;;;;;;37.95;20.73;;;9.20;99.90;;;;;;4992052;28;20574;-89
2023/04/09 03:12:30;;;;;;;36.63;21.98;;;9.10;99.90;;;;;;4976870;28;20089;-87
2023/04/09 03:14:56;;;;;;;35.75;19.50;;;9.10;99.90;;;;;;4964727;28;20073;-88
2023/04/09 03:17:24;;;;;;;38.85;22.05;;;9.20;99.90;;;;;;4993643;28;20038;-87
2023/04/09 03:19:50;;;;;;;35.38;20.05;;;9.10;99.90;;;;;;4957119;28;20046;-88
2023/04/09 03:22:16;;;;;;;37.47;21.27;;;9.10;99.90;;;;;;4959087;28;20042;-87
2023/04/09 03:24:41;;;;;;;36.10;20.45;;;9.20;99.90;;;;;;4988775;28;20046;-87
2023/04/09 03:27:07;;;;;;;38.80;21.92;;;9.10;99.90;;;;;;4970591;28;20048;-87
2023/04/09 03:29:32;;;;;;;36.75;21.95;;;9.10;99.90;;;;;;4972644;28;20042;-87
2023/04/09 03:31:58;;;;;;;37.78;21.17;;;9.10;99.90;;;;;;4955387;28;20060;-87
2023/04/09 03:34:24;;;;;;;34.80;20.55;;;9.10;99.90;;;;;;4971751;28;20029;-87
2023/04/09 03:36:50;;;;;;;38.50;21.13;;;9.10;99.90;;;;;;4966922;28;20496;-87
2023/04/09 03:39:15;;;;;;;33.80;19.85;;;9.10;99.90;;;;;;4975300;28;20244;-87
2023/04/09 03:41:41;;;;;;;38.67;20.98;;;9.10;99.90;;;;;;4966704;28;20036;-88
2023/04/09 03:44:07;;;;;;;38.35;19.98;;;9.10;99.90;;;;;;4998316;28;20538;-87
2023/04/09 03:46:32;;;;;;;33.50;19.50;;;9.10;99.90;;;;;;4989778;28;20112;-88
2023/04/09 03:48:58;;;;;;;36.55;21.35;;;9.10;99.90;;;;;;4958643;28;20446;-88
2023/04/09 03:51:23;;;;;;;38.33;19.65;;;9.10;99.90;;;;;;4974811;28;20038;-87
2023/04/09 03:53:49;;;;;;;32.53;19.02;;;9.00;99.90;;;;;;4947790;28;20735;-87
2023/04/09 03:56:15;;;;;;;37.17;20.55;;;9.10;99.90;;;;;;5004763;28;20042;-88
2023/04/09 03:58:40;;;;;;;33.75;19.45;;;9.00;99.90;;;;;;4955243;28;20089;-87
2023/04/09 04:01:06;;;;;;;34.50;19.92;;;9.10;99.90;;;;;;4960781;28;20603;-88
2023/04/09 04:03:32;;;;;;;35.65;19.98;;;9.10;99.90;;;;;;4968393;28;20038;-88
2023/04/09 04:06:02;;;;;;;38.00;21.23;;;9.10;99.90;;;;;;4977560;28;20125;-88
2023/04/09 04:08:28;;;;;;;34.38;20.55;;;9.10;99.90;;;;;;5009783;28;20676;-87
2023/04/09 04:10:54;;;;;;;36.53;21.13;;;9.10;99.90;;;;;;4964522;28;20035;-87
2023/04/09 04:13:19;;;;;;;36.33;20.55;;;9.10;99.90;;;;;;4965475;28;20030;-87
2023/04/09 04:15:45;;;;;;;34.42;19.38;;;9.10;99.90;;;;;;4960938;28;20097;-87
2023/04/09 04:18:11;;;;;;;32.63;19.38;;;9.00;99.90;;;;;;4938796;28;20034;-87
2023/04/09 04:20:37;;;;;;;32.70;20.73;;;9.00;99.90;;;;;;4946340;28;20403;-87
2023/04/09 04:23:03;;;;;;;34.00;20.55;;;9.00;99.90;;;;;;4952480;28;20038;-87
2023/04/09 04:25:30;;;;;;;35.03;20.25;;;9.10;99.90;;;;;;4989317;28;20053;-87
2023/04/09 04:27:56;;;;;;;33.95;20.83;;;9.00;99.90;;;;;;4953678;28;20039;-87
2023/04/09 04:30:22;;;;;;;36.75;20.73;;;9.00;99.90;;;;;;4962900;28;20038;-87
2023/04/09 04:32:48;;;;;;;34.33;20.52;;;9.00;99.90;;;;;;4955513;28;20463;-87
2023/04/09 04:35:14;;;;;;;33.85;20.20;;;9.00;99.90;;;;;;4991054;28;20033;-87
2023/04/09 04:37:40;;;;;;;35.58;20.27;;;9.00;99.90;;;;;;4975024;28;20479;-87
2023/04/09 04:40:06;;;;;;;36.28;21.65;;;9.00;99.90;;;;;;4967006;28;20049;-87
2023/04/09 04:42:33;;;;;;;35.50;19.92;;;9.00;99.90;;;;;;4993462;28;20136;-87
2023/04/09 04:44:58;;;;;;;36.35;20.60;;;9.00;99.90;;;;;;4974926;28;20041;-87
2023/04/09 04:47:24;;;;;;;32.58;18.88;;;9.00;99.90;;;;;;4969059;28;20096;-87
2023/04/09 04:49:50;;;;;;;31.40;19.17;;;9.00;99.90;;;;;;4954514;28;20039;-87
2023/04/09 04:52:15;;;;;;;35.00;20.08;;;9.00;99.90;;;;;;4990567;28;20037;-87
2023/04/09 04:54:41;;;;;;;33.42;18.88;;;9.00;99.90;;;;;;4972967;28;20105;-87
2023/04/09 04:57:07;;;;;;;33.22;19.10;;;9.00;99.90;;;;;;4974492;28;20044;-87
2023/04/09 04:59:35;;;;;;;33.22;19.27;;;9.00;99.90;;;;;;4962967;28;20035;-87
2023/04/09 05:02:01;;;;;;;32.33;19.38;;;9.00;99.90;;;;;;4980831;28;20042;-86
2023/04/09 05:04:27;;;;;;;32.50;20.08;;;9.00;99.90;;;;;;4957812;28;20042;-87
2023/04/09 05:06:52;;;;;;;34.28;20.05;;;9.00;99.90;;;;;;5005223;28;20066;-87
2023/04/09 05:09:18;;;;;;;33.45;19.73;;;9.00;99.90;;;;;;4969132;28;20037;-87
2023/04/09 05:11:43;;;;;;;34.75;19.05;;;9.00;99.90;;;;;;4954906;28;20046;-87
2023/04/09 05:14:09;;;;;;;34.50;19.67;;;9.00;99.90;;;;;;4984077;28;20384;-87
2023/04/09 05:16:35;;;;;;;32.97;19.10;;;9.00;99.90;;;;;;4976861;28;20478;-87
2023/04/09 05:19:01;;;;;;;35.35;19.15;;;9.00;99.90;;;;;;4993453;28;20081;-87
2023/04/09 05:21:26;;;;;;;31.90;17.73;;;9.00;99.90;;;;;;4952836;28;20046;-87
2023/04/09 05:23:53;;;;;;;32.58;19.35;;;9.00;99.90;;;;;;4953305;28;20049;-87
2023/04/09 05:26:18;;;;;;;34.22;18.42;;;9.00;99.90;;;;;;5009065;28;20043;-87
2023/04/09 05:28:44;;;;;;;33.25;19.52;;;9.00;99.90;;;;;;4956400;28;20050;-86
2023/04/09 05:31:11;;;;;;;33.28;19.30;;;9.00;99.90;;;;;;4959392;28;20066;-87
2023/04/09 05:33:38;;;;;;;33.75;18.50;;;8.90;99.90;;;;;;4947649;28;20526;-87
2023/04/09 05:36:04;;;;;;;33.38;19.02;;;9.00;99.90;;;;;;4978715;28;20800;-87
2023/04/09 05:38:31;;;;;;;32.03;18.17;;;9.00;99.90;;;;;;4943634;28;20109;-87
2023/04/09 05:40:56;;;;;;;32.10;19.10;;;9.00;99.90;;;;;;4952455;28;20081;-88
2023/04/09 05:43:22;;;;;;;36.28;20.23;;;9.00;99.90;;;;;;4972229;28;20038;-89
2023/04/09 05:45:48;;;;;;;35.22;19.88;;;9.00;99.90;;;;;;4969752;28;20037;-88
2023/04/09 05:48:14;;;;;;;34.22;20.23;;;9.00;99.90;;;;;;4992674;28;20045;-88
2023/04/09 05:50:39;;;;;;;34.38;19.45;;;9.00;99.90;;;;;;4967326;28;20041;-89
2023/04/09 05:53:05;;;;;;;34.10;18.60;;;9.00;99.90;;;;;;4955829;28;20058;-89
2023/04/09 05:55:31;;;;;;;33.97;18.38;;;9.10;99.90;;;;;;4966501;28;20038;-89
2023/04/09 05:57:57;;;;;;;40.40;21.38;;;9.10;99.90;;;;;;4975543;28;20046;-86
2023/04/09 06:00:23;;;;;;;38.75;20.45;;;9.00;99.90;;;;;;4944615;28;20038;-86
2023/04/09 06:02:48;;;;;;;39.42;21.45;;;9.10;99.90;;;;;;4996940;28;20070;-87
2023/04/09 06:05:14;;;;;;;40.65;20.85;;;9.10;99.90;;;;;;4955127;28;20133;-87
2023/04/09 06:07:40;;;;;;;39.38;22.58;;;9.10;99.90;;;;;;4954064;28;20109;-87
2023/04/09 06:10:07;;;;;;;38.03;21.33;;;9.10;99.90;;;;;;4948004;28;20089;-86
2023/04/09 06:12:35;;;;;;;40.95;19.95;;;9.20;99.90;;;;;;4982532;28;20045;-86
2023/04/09 06:15:01;;;;;;;36.50;19.85;;;9.20;99.90;;;;;;4970104;28;20035;-87
2023/04/09 06:17:28;;;;;;;39.08;20.10;;;9.30;99.90;;;;;;4957930;28;20042;-87
2023/04/09 06:19:53;;;;;;;38.38;21.42;;;9.30;99.90;;;;;;4974822;28;20627;-87
2023/04/09 06:22:19;;;;;;;40.47;21.45;;;9.30;99.90;;;;;;4962438;28;20058;-86
2023/04/09 06:24:45;;;;;;;44.72;21.48;;;9.30;99.90;;;;;;4953279;28;20554;-87
2023/04/09 06:27:11;;;;;;;34.65;19.55;;;9.40;99.90;;;;;;4981164;28;20125;-87
2023/04/09 06:29:36;;;;;;;38.33;19.58;;;9.40;99.90;;;;;;4953517;28;20050;-87
2023/04/09 06:32:02;;;;;;;37.65;21.23;;;9.40;99.90;;;;;;4953952;28;20046;-87
2023/04/09 06:34:28;;;;;;;38.63;21.60;;;9.40;99.90;;;;;;4986881;28;20034;-86
2023/04/09 06:36:54;;;;;;;39.20;21.73;;;9.40;99.90;;;;;;4967695;28;20480;-87
2023/04/09 06:39:20;;;;;;;36.30;21.38;;;9.40;99.90;;;;;;4993233;28;20034;-86
2023/04/09 06:41:46;;;;;;;36.85;21.02;;;9.40;99.90;;;;;;4954965;28;20046;-87
2023/04/09 06:44:12;;;;;;;33.75;20.60;;;9.40;99.90;;;;;;4970725;28;20056;-86
2023/04/09 06:46:38;;;;;;;39.08;20.95;;;9.50;99.90;;;;;;4960467;28;20510;-87
2023/04/09 06:49:04;;;;;;;37.28;21.20;;;9.50;99.90;;;;;;4996413;28;20073;-87
2023/04/09 06:51:30;;;;;;;37.67;20.92;;;9.50;99.90;;;;;;4977008;28;20046;-87
2023/04/09 06:53:56;;;;;;;38.25;21.92;;;9.50;99.90;;;;;;4964754;28;20044;-87
2023/04/09 06:56:22;;;;;;;37.33;20.98;;;9.50;99.90;;;;;;4992967;28;20034;-88
2023/04/09 06:58:47;;;;;;;35.30;20.70;;;9.50;99.90;;;;;;4970109;28;20034;-87
2023/04/09 07:01:13;;;;;;;39.00;23.15;;;9.50;99.90;;;;;;4982649;28;20125;-87
2023/04/09 07:03:39;;;;;;;35.92;20.90;;;9.60;99.90;;;;;;4955852;28;20113;-87
2023/04/09 07:06:05;;;;;;;41.58;21.25;;;9.60;99.90;;;;;;4961688;28;20066;-87
2023/04/09 07:08:31;;;;;;;38.83;23.08;;;9.60;99.90;;;;;;4965554;28;20038;-87
2023/04/09 07:10:56;;;;;;;37.78;22.85;;;9.70;99.90;;;;;;4984338;28;21282;-87
2023/04/09 07:13:22;;;;;;;37.88;21.45;;;9.70;99.90;;;;;;4967720;28;20057;-87
2023/04/09 07:15:48;;;;;;;39.53;21.98;;;9.70;99.90;;;;;;4971819;28;20038;-88
2023/04/09 07:18:13;;;;;;;38.00;23.23;;;9.70;99.90;;;;;;4967551;28;20034;-87
2023/04/09 07:20:39;;;;;;;42.38;22.85;;;9.80;99.90;;;;;;4952844;28;20062;-87
2023/04/09 07:23:05;;;;;;;37.88;22.42;;;9.80;99.90;;;;;;4989192;28;20046;-87
2023/04/09 07:25:31;;;;;;;43.38;23.80;;;9.80;99.90;;;;;;4999128;28;20034;-87
2023/04/09 07:27:57;;;;;;;41.20;23.65;;;9.90;99.90;;;;;;4952063;28;20044;-87
2023/04/09 07:30:22;;;;;;;41.50;24.45;;;9.90;99.90;;;;;;4970050;28;20042;-87
2023/04/09 07:32:48;;;;;;;37.58;22.27;;;10.00;99.90;;;;;;4955230;28;20492;-87
2023/04/09 07:35:14;;;;;;;40.28;24.23;;;9.90;99.90;;;;;;4968822;28;20042;-87
2023/04/09 07:37:40;;;;;;;40.03;25.08;;;10.00;99.90;;;;;;4946798;28;20496;-87
2023/04/09 07:40:07;;;;;;;40.60;23.77;;;10.00;99.90;;;;;;4964807;28;20042;-87
2023/04/09 07:42:32;;;;;;;39.03;24.13;;;10.10;99.90;;;;;;4955460;28;20388;-87
2023/04/09 07:44:59;;;;;;;40.03;24.52;;;10.10;99.90;;;;;;4949597;28;20617;-87
2023/04/09 07:47:25;;;;;;;44.33;25.05;;;10.20;99.90;;;;;;4993060;28;20109;-87
2023/04/09 07:49:51;;;;;;;37.65;23.70;;;10.20;99.90;;;;;;4998755;28;20408;-87
2023/04/09 07:52:18;;;;;;;42.45;25.23;;;10.20;99.90;;;;;;4959305;28;20700;-87
2023/04/09 07:54:44;;;;;;;40.80;24.48;;;10.30;99.90;;;;;;4972503;28;20039;-87
2023/04/09 07:57:09;;;;;;;43.38;24.67;;;10.40;99.90;;;;;;4984187;28;20441;-87
2023/04/09 07:59:35;;;;;;;40.88;25.33;;;10.40;99.90;;;;;;4967911;28;20052;-87
2023/04/09 08:02:01;;;;;;;41.92;24.42;;;10.50;99.90;;;;;;4960825;28;20056;-88
2023/04/09 08:04:27;;;;;;;39.78;22.63;;;10.50;99.90;;;;;;4981053;28;20053;-87
2023/04/09 08:06:54;;;;;;;41.17;24.80;;;10.60;99.90;;;;;;4966684;28;20044;-87
2023/04/09 08:09:20;;;;;;;41.55;24.92;;;10.60;99.90;;;;;;4959199;28;20044;-88
2023/04/09 08:11:46;;;;;;;45.78;24.65;;;10.60;99.90;;;;;;4996420;28;20066;-87
2023/04/09 08:14:16;;;;;;;39.30;23.80;;;10.70;99.90;;;;;;4995994;28;20073;-88
2023/04/09 08:16:45;;;;;;;39.85;23.70;;;10.70;99.90;;;;;;4977658;28;20535;-87
2023/04/09 08:19:11;;;;;;;39.90;23.48;;;10.80;99.90;;;;;;4971271;28;20034;-87
2023/04/09 08:21:37;;;;;;;38.28;23.15;;;10.90;99.90;;;;;;4992123;28;20161;-87
2023/04/09 08:24:04;;;;;;;42.40;25.80;;;11.00;99.90;;;;;;4997207;28;20053;-87
2023/04/09 08:26:30;;;;;;;41.55;23.95;;;11.00;99.90;;;;;;4965443;28;20037;-87
2023/04/09 08:28:56;;;;;;;38.88;24.52;;;11.10;99.90;;;;;;5000816;28;20046;-87
2023/04/09 08:31:22;;;;;;;38.70;22.98;;;11.20;99.90;;;;;;4990677;28;20050;-88
2023/04/09 08:33:48;;;;;;;38.97;23.08;;;11.30;99.90;;;;;;4999246;28;20096;-87
2023/04/09 08:36:14;;;;;;;39.03;23.65;;;11.30;99.90;;;;;;4964952;28;20507;-89
2023/04/09 08:38:40;;;;;;;38.42;23.35;;;11.40;99.90;;;;;;4963625;28;20554;-90
2023/04/09 08:41:17;;;;;;;38.45;23.85;;;11.50;99.90;;;;;;4989581;28;20033;-89
2023/04/09 08:43:45;;;;;;;38.55;22.67;;;11.60;99.90;;;;;;4959992;28;20566;-89
2023/04/09 08:46:11;;;;;;;38.03;23.00;;;11.70;99.90;;;;;;4998419;28;20121;-88
2023/04/09 08:48:41;;;;;;;38.33;22.88;;;11.70;99.90;;;;;;4999494;28;20504;-88
2023/04/09 08:51:07;;;;;;;38.90;23.20;;;11.90;99.90;;;;;;4990017;28;20057;-89
2023/04/09 08:53:37;;;;;;;36.95;22.60;;;11.90;99.90;;;;;;4963551;28;20046;-88
2023/04/09 08:56:03;;;;;;;34.60;22.60;;;12.00;99.90;;;;;;4977429;28;20570;-88
2023/04/09 08:58:29;;;;;;;39.88;23.08;;;12.10;99.90;;;;;;4964537;28;20120;-89
2023/04/09 09:00:55;;;;;;;39.30;24.10;;;12.10;99.90;;;;;;4961285;28;20073;-88
2023/04/09 09:03:21;;;;;;;36.90;23.55;;;12.20;99.90;;;;;;5008211;28;20048;-89
2023/04/09 09:05:47;;;;;;;37.28;23.55;;;12.30;99.90;;;;;;4963547;28;20042;-89
2023/04/09 09:08:25;;;;;;;35.55;22.65;;;12.40;99.90;;;;;;4962869;28;20460;-89
2023/04/09 09:10:51;;;;;;;37.92;26.48;;;12.50;99.90;;;;;;4986270;28;20050;-89
2023/04/09 09:13:27;;;;;;;36.63;23.13;;;12.50;99.90;;;;;;4991532;28;20047;-89
2023/04/09 09:16:10;;;;;;;37.63;33.53;;;12.60;99.90;;;;;;4984379;28;20042;-89
2023/04/09 09:18:42;;;;;;;36.22;22.60;;;12.80;99.90;;;;;;4964610;28;20125;-89
2023/04/09 09:21:16;;;;;;;36.30;21.58;;;12.90;99.90;;;;;;4969957;28;20038;-89
2023/04/09 09:23:43;;;;;;;33.15;22.63;;;13.00;99.90;;;;;;4986132;28;20042;-89
2023/04/09 09:26:19;;;;;;;37.40;33.30;;;13.10;99.90;;;;;;4976147;28;20038;-90
2023/04/09 09:28:47;;;;;;;37.55;33.58;;;13.20;99.90;;;;;;4982025;28;20081;-89
2023/04/09 09:31:13;;;;;;;31.52;21.52;;;13.40;99.90;;;;;;5004238;28;20038;-89
2023/04/09 09:33:39;;;;;;;34.92;21.20;;;13.40;99.90;;;;;;4961526;28;20039;-88
2023/04/09 09:36:06;;;;;;;35.72;23.67;;;13.50;99.90;;;;;;4984512;28;20052;-89
2023/04/09 09:38:32;;;;;;;34.63;30.92;;;13.50;99.90;;;;;;4988381;28;20094;-89
2023/04/09 09:40:58;;;;;;;30.90;21.55;;;13.70;98.10;;;;;;4984098;28;20058;-88
2023/04/09 09:43:24;;;;;;;33.88;23.10;;;13.80;98.80;;;;;;4953642;28;20511;-89
2023/04/09 09:45:50;;;;;;;35.65;31.95;;;13.90;98.10;;;;;;4961722;28;20122;-89
2023/04/09 09:48:16;;;;;;;32.83;22.55;;;14.00;94.70;;;;;;4968036;28;20069;-89
2023/04/09 09:50:45;;;;;;;33.67;30.30;;;14.10;96.60;;;;;;4993380;28;20508;-87
2023/04/09 09:53:11;;;;;;;32.63;21.92;;;14.20;93.90;;;;;;4984518;28;20508;-90
2023/04/09 09:55:45;;;;;;;34.22;23.50;;;14.20;94.30;;;;;;4966916;28;20049;-89
2023/04/09 09:58:24;;;;;;;34.70;24.48;;;14.10;93.20;;;;;;4978086;28;20041;-89
2023/04/09 10:00:51;;;;;;;33.40;29.80;;;14.20;93.20;;;;;;4965073;28;20038;-89
2023/04/09 10:03:24;;;;;;;35.03;30.60;;;14.40;92.40;;;;;;4981355;28;20051;-89
2023/04/09 10:05:50;;;;;;;31.30;20.25;;;14.50;92.50;;;;;;4967612;28;20041;-89
2023/04/09 10:08:16;;;;;;;28.45;25.45;;;14.70;93.50;;;;;;4983541;28;20049;-89
2023/04/09 10:10:43;;;;;;;25.55;17.30;;;14.80;90.80;;;;;;4979865;28;20504;-89
2023/04/09 10:13:20;;;;;;;29.98;26.80;;;14.90;90.00;;;;;;4949087;28;20077;-88
2023/04/09 10:15:46;;;;;;;30.95;27.65;;;15.00;86.00;;;;;;4957738;28;20104;-89
2023/04/09 10:18:12;;;;;;;31.00;27.80;;;15.00;85.50;;;;;;4953714;28;20069;-89
2023/04/09 10:20:49;;;;;;;30.70;27.27;;;15.00;85.60;;;;;;4981292;28;20046;-89
2023/04/09 10:23:26;;;;;;;28.00;24.02;;;15.10;82.30;;;;;;4968335;28;20413;-89
2023/04/09 10:25:52;;;;;;;26.05;23.25;;;15.10;81.10;;;;;;4966289;28;20089;-89
2023/04/09 10:28:18;;;;;;;27.08;24.17;;;15.10;80.20;;;;;;4982120;28;20382;-89
2023/04/09 10:30:44;;;;;;;27.85;24.77;;;15.10;80.80;;;;;;4948916;28;20035;-89
2023/04/09 10:33:18;;;;;;;28.52;19.02;;;15.10;78.80;;;;;;4954414;28;20477;-89
2023/04/09 10:35:46;;;;;;;26.90;18.70;;;15.00;79.30;;;;;;5006113;28;20045;-89
2023/04/09 10:38:14;;;;;;;27.17;18.08;;;15.10;80.50;;;;;;4966384;28;20112;-89
2023/04/09 10:40:52;;;;;;;27.58;24.60;;;15.20;81.10;;;;;;4973892;28;20041;-89
2023/04/09 10:43:21;;;;;;;26.13;23.42;;;15.40;79.50;;;;;;4994800;28;20097;-89
2023/04/09 10:45:52;;;;;;;25.45;22.63;;;15.50;78.30;;;;;;4988260;28;20548;-90
2023/04/09 10:48:18;;;;;;;28.88;24.35;;;15.60;77.40;;;;;;4966323;28;20046;-89
2023/04/09 10:50:44;;;;;;;28.40;25.33;;;15.70;78.00;;;;;;4998623;28;20046;-89
2023/04/09 10:53:22;;;;;;;26.05;23.30;;;15.70;77.40;;;;;;4974881;28;20098;-89
2023/04/09 10:55:49;;;;;;;25.13;22.50;;;15.80;76.50;;;;;;5000506;28;20092;-89
2023/04/09 10:58:15;;;;;;;25.23;17.67;;;15.90;76.30;;;;;;5000793;28;20095;-89
2023/04/09 11:00:43;;;;;;;27.00;23.95;;;15.90;76.00;;;;;;4986496;28;21552;-89
2023/04/09 11:03:09;;;;;;;25.40;22.75;;;16.00;74.70;;;;;;4956392;28;20046;-90
2023/04/09 11:05:39;;;;;;;24.15;21.60;;;16.10;75.10;;;;;;5012399;28;20569;-89
2023/04/09 11:08:10;;;;;;;24.05;21.55;;;16.30;74.80;;;;;;4979345;28;20125;-89
2023/04/09 11:10:37;;;;;;;24.83;22.23;;;16.30;73.70;;;;;;4965735;28;20038;-89
2023/04/09 11:13:04;;;;;;;26.33;23.48;;;16.50;73.10;;;;;;4996628;28;20039;-90
2023/04/09 11:15:33;;;;;;;24.92;22.33;;;16.70;72.60;;;;;;4961840;28;20046;-90
2023/04/09 11:17:59;;;;;;;25.42;22.45;;;16.70;71.60;;;;;;4947510;28;20054;-89
2023/04/09 11:20:25;;;;;;;26.92;23.98;;;16.70;71.60;;;;;;4991655;28;20126;-89
2023/04/09 11:22:52;;;;;;;26.92;24.10;;;16.70;70.70;;;;;;4965648;28;20518;-89
2023/04/09 11:25:24;;;;;;;25.58;22.88;;;16.60;69.60;;;;;;4966303;28;20042;-89
2023/04/09 11:27:50;;;;;;;26.13;23.30;;;16.60;71.20;;;;;;4968065;28;20080;-90
2023/04/09 11:30:16;;;;;;;25.08;22.45;;;16.80;71.40;;;;;;4980683;28;20904;-90
2023/04/09 11:32:42;;;;;;;25.55;22.85;;;17.00;70.90;;;;;;5001257;28;20033;-90
2023/04/09 11:35:15;;;;;;;25.52;22.83;;;17.10;70.10;;;;;;4973273;28;20517;-89
2023/04/09 11:37:42;;;;;;;24.70;22.08;;;17.20;69.80;;;;;;4978860;28;20124;-90
2023/04/09 11:40:23;;;;;;;25.08;22.38;;;17.30;69.90;;;;;;4970338;28;20050;-90
2023/04/09 11:42:50;;;;;;;25.00;22.42;;;17.30;68.80;;;;;;4975606;28;20499;-90
2023/04/09 11:45:17;;;;;;;25.30;22.60;;;17.30;69.40;;;;;;4975648;28;20043;-90
2023/04/09 11:47:43;;;;;;;25.25;22.55;;;17.30;70.00;;;;;;5006549;28;20056;-90
2023/04/09 11:50:11;;;;;;;25.63;22.92;;;17.30;68.60;;;;;;4973714;28;20053;-90
2023/04/09 11:52:37;;;;;;;25.40;22.70;;;17.40;68.50;;;;;;4985769;28;20026;-90
2023/04/09 11:55:04;;;;;;;22.30;19.83;;;17.60;69.90;;;;;;5002955;28;20034;-91
2023/04/09 11:57:59;;;;;;;21.65;19.35;;;17.80;68.90;;;;;;4990108;28;20046;-90
2023/04/09 12:00:26;;;;;;;24.95;22.33;;;18.10;67.40;;;;;;4971106;28;20515;-90
2023/04/09 12:03:00;;;;;;;26.33;23.50;;;18.20;67.20;;;;;;4989994;28;20060;-91
2023/04/09 12:05:30;;;;;;;25.50;22.92;;;18.40;66.50;;;;;;4966579;28;20042;-90
2023/04/09 12:07:59;;;;;;;25.10;22.52;;;18.40;66.60;;;;;;4978778;28;20046;-91
2023/04/09 12:10:31;;;;;;;25.23;22.58;;;18.60;67.30;;;;;;4967532;28;20407;-90
2023/04/09 12:13:12;;;;;;;23.50;21.05;;;18.70;67.00;;;;;;5008509;28;20488;-90
2023/04/09 12:15:40;;;;;;;20.58;18.38;;;18.90;65.90;;;;;;4984178;28;20042;-91
2023/04/09 12:18:11;;;;;;;22.83;20.33;;;19.10;64.80;;;;;;4978302;28;20033;-90
2023/04/09 12:20:45;;;;;;;21.70;19.40;;;19.00;62.50;;;;;;4999881;28;20034;-90
2023/04/09 12:23:11;;;;;;;22.25;19.88;;;19.00;62.00;;;;;;4972684;28;20511;-90
2023/04/09 12:25:45;;;;;;;22.85;19.42;;;19.00;62.00;;;;;;5007925;28;20298;-91
2023/04/09 12:28:14;;;;;;;21.83;19.55;;;19.00;62.10;;;;;;4983330;28;20038;-90
2023/04/09 12:30:41;;;;;;;20.85;18.65;;;19.00;62.60;;;;;;4967112;28;20539;-90
2023/04/09 12:33:07;;;;;;;23.33;20.92;;;19.10;61.60;;;;;;4981996;28;20038;-90
2023/04/09 12:35:33;;;;;;;21.55;19.15;;;19.20;62.30;;;;;;4971500;28;20560;-90